sensor_id;sensor_type;location;lat;lon;timestamp;temperature;humidity
32811;DHT22;65470;47.324;8.548;2023-06-14T00:00:38;18.50;59.70
32811;DHT22;65470;47.324;8.548;2023-06-14T00:03:08;18.50;59.50
32811;DHT22;65470;47.324;8.548;2023-06-14T00:05:38;18.50;59.70
32811;DHT22;65470;47.324;8.548;2023-06-14T00:08:09;18.60;59.20
32811;DHT22;65470;47.324;8.548;2023-06-14T00:10:35;18.50;58.90
32811;DHT22;65470;47.324;8.548;2023-06-14T00:13:05;18.60;59.60
32811;DHT22;65470;47.324;8.548;2023-06-14T00:15:31;18.50;60.40
32811;DHT22;65470;47.324;8.548;2023-06-14T00:17:57;18.40;60.00
32811;DHT22;65470;47.324;8.548;2023-06-14T00:20:30;18.40;59.50
32811;DHT22;65470;47.324;8.548;2023-06-14T00:23:02;18.40;59.90
32811;DHT22;65470;47.324;8.548;2023-06-14T00:25:28;18.40;59.80
32811;DHT22;65470;47.324;8.548;2023-06-14T00:27:54;18.30;60.50
32811;DHT22;65470;47.324;8.548;2023-06-14T00:30:20;18.30;60.00
32811;DHT22;65470;47.324;8.548;2023-06-14T00:32:46;18.20;60.50
32811;DHT22;65470;47.324;8.548;2023-06-14T00:35:12;18.10;60.70
32811;DHT22;65470;47.324;8.548;2023-06-14T00:37:38;18.10;60.30
32811;DHT22;65470;47.324;8.548;2023-06-14T00:40:05;18.20;59.80
32811;DHT22;65470;47.324;8.548;2023-06-14T00:42:31;18.20;60.90
32811;DHT22;65470;47.324;8.548;2023-06-14T00:44:57;18.20;60.90
32811;DHT22;65470;47.324;8.548;2023-06-14T00:47:23;18.10;61.40
32811;DHT22;65470;47.324;8.548;2023-06-14T00:49:53;18.10;60.60
32811;DHT22;65470;47.324;8.548;2023-06-14T00:52:19;18.10;61.10
32811;DHT22;65470;47.324;8.548;2023-06-14T00:54:44;18.10;61.40
32811;DHT22;65470;47.324;8.548;2023-06-14T00:57:11;18.10;60.50
32811;DHT22;65470;47.324;8.548;2023-06-14T00:59:48;18.10;60.50
32811;DHT22;65470;47.324;8.548;2023-06-14T01:02:14;18.10;60.60
32811;DHT22;65470;47.324;8.548;2023-06-14T01:04:47;18.10;61.10
32811;DHT22;65470;47.324;8.548;2023-06-14T01:15:20;17.80;61.60
32811;DHT22;65470;47.324;8.548;2023-06-14T01:17:49;17.90;62.00
32811;DHT22;65470;47.324;8.548;2023-06-14T01:20:19;17.80;61.50
32811;DHT22;65470;47.324;8.548;2023-06-14T01:22:52;17.90;63.40
32811;DHT22;65470;47.324;8.548;2023-06-14T01:25:19;17.80;61.70
32811;DHT22;65470;47.324;8.548;2023-06-14T01:28:00;17.80;62.30
32811;DHT22;65470;47.324;8.548;2023-06-14T01:30:26;17.80;61.80
32811;DHT22;65470;47.324;8.548;2023-06-14T01:32:54;17.80;62.10
32811;DHT22;65470;47.324;8.548;2023-06-14T01:35:21;17.70;62.40
32811;DHT22;65470;47.324;8.548;2023-06-14T01:37:48;17.70;62.50
32811;DHT22;65470;47.324;8.548;2023-06-14T01:40:15;17.70;63.50
32811;DHT22;65470;47.324;8.548;2023-06-14T01:42:42;17.70;63.10
32811;DHT22;65470;47.324;8.548;2023-06-14T01:45:09;17.60;64.30
32811;DHT22;65470;47.324;8.548;2023-06-14T01:47:36;17.50;63.90
32811;DHT22;65470;47.324;8.548;2023-06-14T01:50:03;17.50;64.30
32811;DHT22;65470;47.324;8.548;2023-06-14T01:52:29;17.50;64.00
32811;DHT22;65470;47.324;8.548;2023-06-14T01:54:54;17.50;64.70
32811;DHT22;65470;47.324;8.548;2023-06-14T01:57:21;17.40;64.80
32811;DHT22;65470;47.324;8.548;2023-06-14T01:59:47;17.30;65.00
32811;DHT22;65470;47.324;8.548;2023-06-14T02:05:26;17.30;64.90
32811;DHT22;65470;47.324;8.548;2023-06-14T02:07:52;17.20;65.00
32811;DHT22;65470;47.324;8.548;2023-06-14T02:10:20;17.20;65.20
32811;DHT22;65470;47.324;8.548;2023-06-14T02:12:45;17.20;65.20
32811;DHT22;65470;47.324;8.548;2023-06-14T02:15:11;17.10;66.10
32811;DHT22;65470;47.324;8.548;2023-06-14T02:17:43;17.10;65.90
32811;DHT22;65470;47.324;8.548;2023-06-14T02:20:09;17.00;66.10
32811;DHT22;65470;47.324;8.548;2023-06-14T02:22:35;17.00;66.50
32811;DHT22;65470;47.324;8.548;2023-06-14T02:25:00;16.90;66.60
32811;DHT22;65470;47.324;8.548;2023-06-14T02:27:26;16.90;67.10
32811;DHT22;65470;47.324;8.548;2023-06-14T02:29:51;16.80;67.10
32811;DHT22;65470;47.324;8.548;2023-06-14T02:32:17;16.80;67.70
32811;DHT22;65470;47.324;8.548;2023-06-14T02:34:42;16.80;67.20
32811;DHT22;65470;47.324;8.548;2023-06-14T02:37:08;16.70;67.80
32811;DHT22;65470;47.324;8.548;2023-06-14T02:39:34;16.70;67.80
32811;DHT22;65470;47.324;8.548;2023-06-14T02:42:00;16.70;67.50
32811;DHT22;65470;47.324;8.548;2023-06-14T02:44:27;16.70;67.10
32811;DHT22;65470;47.324;8.548;2023-06-14T02:46:53;16.70;67.50
32811;DHT22;65470;47.324;8.548;2023-06-14T02:49:19;16.60;67.90
32811;DHT22;65470;47.324;8.548;2023-06-14T02:51:45;16.60;67.30
32811;DHT22;65470;47.324;8.548;2023-06-14T02:54:11;16.60;67.90
32811;DHT22;65470;47.324;8.548;2023-06-14T02:56:36;16.60;67.60
32811;DHT22;65470;47.324;8.548;2023-06-14T02:59:02;16.50;67.90
32811;DHT22;65470;47.324;8.548;2023-06-14T03:01:28;16.50;68.90
32811;DHT22;65470;47.324;8.548;2023-06-14T03:04:01;16.40;70.20
32811;DHT22;65470;47.324;8.548;2023-06-14T03:06:28;16.30;70.10
32811;DHT22;65470;47.324;8.548;2023-06-14T03:08:56;16.30;70.30
32811;DHT22;65470;47.324;8.548;2023-06-14T03:11:25;16.20;71.30
32811;DHT22;65470;47.324;8.548;2023-06-14T03:13:51;16.10;72.00
32811;DHT22;65470;47.324;8.548;2023-06-14T03:16:18;16.00;72.00
32811;DHT22;65470;47.324;8.548;2023-06-14T03:18:52;16.00;72.40
32811;DHT22;65470;47.324;8.548;2023-06-14T03:21:19;15.90;72.00
32811;DHT22;65470;47.324;8.548;2023-06-14T03:23:46;15.90;72.20
32811;DHT22;65470;47.324;8.548;2023-06-14T03:26:12;15.90;72.40
32811;DHT22;65470;47.324;8.548;2023-06-14T03:28:44;15.90;72.00
32811;DHT22;65470;47.324;8.548;2023-06-14T03:31:11;15.90;71.90
32811;DHT22;65470;47.324;8.548;2023-06-14T03:33:36;16.00;71.60
32811;DHT22;65470;47.324;8.548;2023-06-14T03:36:02;16.00;71.70
32811;DHT22;65470;47.324;8.548;2023-06-14T03:38:28;16.00;72.80
32811;DHT22;65470;47.324;8.548;2023-06-14T03:40:54;15.90;72.50
32811;DHT22;65470;47.324;8.548;2023-06-14T03:43:20;15.90;72.30
32811;DHT22;65470;47.324;8.548;2023-06-14T03:45:45;15.90;71.90
32811;DHT22;65470;47.324;8.548;2023-06-14T03:48:11;15.90;72.20
32811;DHT22;65470;47.324;8.548;2023-06-14T03:50:37;15.90;71.90
32811;DHT22;65470;47.324;8.548;2023-06-14T03:53:04;15.90;71.20
32811;DHT22;65470;47.324;8.548;2023-06-14T03:55:30;16.00;71.00
32811;DHT22;65470;47.324;8.548;2023-06-14T03:57:59;16.00;70.80
32811;DHT22;65470;47.324;8.548;2023-06-14T04:00:25;16.00;70.70
32811;DHT22;65470;47.324;8.548;2023-06-14T04:02:50;16.10;70.70
32811;DHT22;65470;47.324;8.548;2023-06-14T04:05:16;16.20;70.80
32811;DHT22;65470;47.324;8.548;2023-06-14T04:07:44;16.40;71.00
32811;DHT22;65470;47.324;8.548;2023-06-14T04:10:13;16.40;71.00
32811;DHT22;65470;47.324;8.548;2023-06-14T04:12:39;16.60;71.20
32811;DHT22;65470;47.324;8.548;2023-06-14T04:15:05;16.60;71.60
32811;DHT22;65470;47.324;8.548;2023-06-14T04:17:32;16.70;71.30
32811;DHT22;65470;47.324;8.548;2023-06-14T04:20:01;16.80;71.40
32811;DHT22;65470;47.324;8.548;2023-06-14T04:22:27;16.90;71.70
32811;DHT22;65470;47.324;8.548;2023-06-14T04:24:56;17.00;71.40
32811;DHT22;65470;47.324;8.548;2023-06-14T04:27:23;17.10;72.20
32811;DHT22;65470;47.324;8.548;2023-06-14T04:29:54;17.10;71.50
32811;DHT22;65470;47.324;8.548;2023-06-14T04:32:29;17.30;71.90
32811;DHT22;65470;47.324;8.548;2023-06-14T04:35:06;17.30;71.40
32811;DHT22;65470;47.324;8.548;2023-06-14T04:37:32;17.40;71.00
32811;DHT22;65470;47.324;8.548;2023-06-14T04:39:58;17.50;71.90
32811;DHT22;65470;47.324;8.548;2023-06-14T04:42:24;17.50;70.70
32811;DHT22;65470;47.324;8.548;2023-06-14T04:44:51;17.60;70.70
32811;DHT22;65470;47.324;8.548;2023-06-14T04:47:20;17.70;70.40
32811;DHT22;65470;47.324;8.548;2023-06-14T04:49:46;17.80;70.10
32811;DHT22;65470;47.324;8.548;2023-06-14T04:52:12;17.90;70.30
32811;DHT22;65470;47.324;8.548;2023-06-14T04:54:39;18.00;69.50
32811;DHT22;65470;47.324;8.548;2023-06-14T04:57:11;18.20;71.10
32811;DHT22;65470;47.324;8.548;2023-06-14T04:59:43;18.30;72.70
32811;DHT22;65470;47.324;8.548;2023-06-14T05:02:10;18.30;73.30
32811;DHT22;65470;47.324;8.548;2023-06-14T05:04:35;18.40;73.20
32811;DHT22;65470;47.324;8.548;2023-06-14T05:07:08;18.60;73.00
32811;DHT22;65470;47.324;8.548;2023-06-14T05:09:37;18.70;71.80
32811;DHT22;65470;47.324;8.548;2023-06-14T05:12:03;18.80;72.00
32811;DHT22;65470;47.324;8.548;2023-06-14T05:14:29;18.90;71.60
32811;DHT22;65470;47.324;8.548;2023-06-14T05:16:55;19.10;72.10
32811;DHT22;65470;47.324;8.548;2023-06-14T05:19:21;19.20;72.40
32811;DHT22;65470;47.324;8.548;2023-06-14T05:21:47;19.30;71.00
32811;DHT22;65470;47.324;8.548;2023-06-14T05:24:13;19.30;70.70
32811;DHT22;65470;47.324;8.548;2023-06-14T05:26:39;19.40;70.70
32811;DHT22;65470;47.324;8.548;2023-06-14T05:29:05;19.50;71.50
32811;DHT22;65470;47.324;8.548;2023-06-14T05:31:30;19.60;70.80
32811;DHT22;65470;47.324;8.548;2023-06-14T05:33:56;19.70;69.50
32811;DHT22;65470;47.324;8.548;2023-06-14T05:36:22;19.80;69.10
32811;DHT22;65470;47.324;8.548;2023-06-14T05:38:48;19.90;67.60
32811;DHT22;65470;47.324;8.548;2023-06-14T05:41:13;19.90;66.30
32811;DHT22;65470;47.324;8.548;2023-06-14T05:43:39;20.00;65.60
32811;DHT22;65470;47.324;8.548;2023-06-14T05:46:05;20.00;67.30
32811;DHT22;65470;47.324;8.548;2023-06-14T05:48:30;20.10;66.20
32811;DHT22;65470;47.324;8.548;2023-06-14T05:50:56;20.10;67.20
32811;DHT22;65470;47.324;8.548;2023-06-14T05:53:22;20.20;67.20
32811;DHT22;65470;47.324;8.548;2023-06-14T05:55:49;20.30;67.20
32811;DHT22;65470;47.324;8.548;2023-06-14T05:58:15;20.40;64.60
32811;DHT22;65470;47.324;8.548;2023-06-14T06:00:41;20.50;65.50
32811;DHT22;65470;47.324;8.548;2023-06-14T06:03:06;20.60;66.00
32811;DHT22;65470;47.324;8.548;2023-06-14T06:05:36;20.80;65.30
32811;DHT22;65470;47.324;8.548;2023-06-14T06:08:02;20.80;64.20
32811;DHT22;65470;47.324;8.548;2023-06-14T06:10:27;20.80;66.10
32811;DHT22;65470;47.324;8.548;2023-06-14T06:12:53;20.90;65.70
32811;DHT22;65470;47.324;8.548;2023-06-14T06:15:20;21.10;65.10
32811;DHT22;65470;47.324;8.548;2023-06-14T06:17:46;21.30;65.20
32811;DHT22;65470;47.324;8.548;2023-06-14T06:20:11;21.40;65.70
32811;DHT22;65470;47.324;8.548;2023-06-14T06:22:38;21.40;63.50
32811;DHT22;65470;47.324;8.548;2023-06-14T06:25:03;21.40;66.70
32811;DHT22;65470;47.324;8.548;2023-06-14T06:27:29;21.40;64.30
32811;DHT22;65470;47.324;8.548;2023-06-14T06:29:55;21.60;63.50
32811;DHT22;65470;47.324;8.548;2023-06-14T06:32:21;21.80;63.30
32811;DHT22;65470;47.324;8.548;2023-06-14T06:34:47;21.90;64.60
32811;DHT22;65470;47.324;8.548;2023-06-14T06:37:13;22.10;64.00
32811;DHT22;65470;47.324;8.548;2023-06-14T06:39:39;22.20;62.20
32811;DHT22;65470;47.324;8.548;2023-06-14T06:42:05;22.30;62.50
32811;DHT22;65470;47.324;8.548;2023-06-14T06:44:30;22.40;62.00
32811;DHT22;65470;47.324;8.548;2023-06-14T06:46:57;22.50;63.40
32811;DHT22;65470;47.324;8.548;2023-06-14T06:49:23;22.70;61.60
32811;DHT22;65470;47.324;8.548;2023-06-14T06:52:03;22.70;61.30
32811;DHT22;65470;47.324;8.548;2023-06-14T06:54:29;22.80;61.20
32811;DHT22;65470;47.324;8.548;2023-06-14T06:56:55;23.00;62.00
32811;DHT22;65470;47.324;8.548;2023-06-14T06:59:21;23.00;59.90
32811;DHT22;65470;47.324;8.548;2023-06-14T07:01:46;22.90;60.80
32811;DHT22;65470;47.324;8.548;2023-06-14T07:04:12;23.00;60.00
32811;DHT22;65470;47.324;8.548;2023-06-14T07:06:38;23.20;62.00
32811;DHT22;65470;47.324;8.548;2023-06-14T07:09:04;23.50;62.70
32811;DHT22;65470;47.324;8.548;2023-06-14T07:11:33;23.70;59.30
32811;DHT22;65470;47.324;8.548;2023-06-14T07:13:59;23.80;60.10
32811;DHT22;65470;47.324;8.548;2023-06-14T07:16:24;23.90;59.30
32811;DHT22;65470;47.324;8.548;2023-06-14T07:18:51;24.10;58.20
32811;DHT22;65470;47.324;8.548;2023-06-14T07:21:17;24.30;59.70
32811;DHT22;65470;47.324;8.548;2023-06-14T07:23:43;24.60;57.90
32811;DHT22;65470;47.324;8.548;2023-06-14T07:26:09;25.20;57.30
32811;DHT22;65470;47.324;8.548;2023-06-14T07:28:34;25.80;55.30
32811;DHT22;65470;47.324;8.548;2023-06-14T07:31:00;26.30;55.30
32811;DHT22;65470;47.324;8.548;2023-06-14T07:33:26;27.00;55.10
32811;DHT22;65470;47.324;8.548;2023-06-14T07:35:51;27.90;53.10
32811;DHT22;65470;47.324;8.548;2023-06-14T07:38:18;28.50;52.70
32811;DHT22;65470;47.324;8.548;2023-06-14T07:40:43;29.00;52.40
32811;DHT22;65470;47.324;8.548;2023-06-14T07:43:09;29.40;52.20
32811;DHT22;65470;47.324;8.548;2023-06-14T07:45:35;29.60;48.40
32811;DHT22;65470;47.324;8.548;2023-06-14T07:48:00;30.00;49.30
32811;DHT22;65470;47.324;8.548;2023-06-14T07:50:26;30.10;49.60
32811;DHT22;65470;47.324;8.548;2023-06-14T07:52:51;30.50;48.70
32811;DHT22;65470;47.324;8.548;2023-06-14T07:55:17;30.40;49.10
32811;DHT22;65470;47.324;8.548;2023-06-14T07:57:43;30.50;49.30
32811;DHT22;65470;47.324;8.548;2023-06-14T08:00:10;30.70;47.20
32811;DHT22;65470;47.324;8.548;2023-06-14T08:02:43;30.80;47.30
32811;DHT22;65470;47.324;8.548;2023-06-14T08:05:10;30.90;48.00
32811;DHT22;65470;47.324;8.548;2023-06-14T08:07:36;31.00;48.70
32811;DHT22;65470;47.324;8.548;2023-06-14T08:10:03;31.20;47.20
32811;DHT22;65470;47.324;8.548;2023-06-14T08:12:28;31.30;46.80
32811;DHT22;65470;47.324;8.548;2023-06-14T08:14:54;31.70;48.20
32811;DHT22;65470;47.324;8.548;2023-06-14T08:17:19;31.90;47.20
32811;DHT22;65470;47.324;8.548;2023-06-14T08:19:45;32.20;45.40
32811;DHT22;65470;47.324;8.548;2023-06-14T08:22:11;32.50;45.60
32811;DHT22;65470;47.324;8.548;2023-06-14T08:24:37;32.30;46.00
32811;DHT22;65470;47.324;8.548;2023-06-14T08:27:03;32.30;45.60
32811;DHT22;65470;47.324;8.548;2023-06-14T08:29:29;32.60;46.10
32811;DHT22;65470;47.324;8.548;2023-06-14T08:31:57;32.70;45.80
32811;DHT22;65470;47.324;8.548;2023-06-14T08:34:23;33.00;46.00
32811;DHT22;65470;47.324;8.548;2023-06-14T08:36:52;33.20;43.00
32811;DHT22;65470;47.324;8.548;2023-06-14T08:39:18;33.20;46.10
32811;DHT22;65470;47.324;8.548;2023-06-14T08:41:46;33.00;45.10
32811;DHT22;65470;47.324;8.548;2023-06-14T08:44:12;33.40;44.50
32811;DHT22;65470;47.324;8.548;2023-06-14T08:46:38;33.20;42.80
32811;DHT22;65470;47.324;8.548;2023-06-14T08:49:04;33.60;43.50
32811;DHT22;65470;47.324;8.548;2023-06-14T08:51:32;33.70;43.90
32811;DHT22;65470;47.324;8.548;2023-06-14T08:54:02;33.50;42.70
32811;DHT22;65470;47.324;8.548;2023-06-14T08:56:30;33.60;43.70
32811;DHT22;65470;47.324;8.548;2023-06-14T08:58:58;33.90;42.90
32811;DHT22;65470;47.324;8.548;2023-06-14T09:01:28;34.00;42.80
32811;DHT22;65470;47.324;8.548;2023-06-14T09:03:54;33.90;44.30
32811;DHT22;65470;47.324;8.548;2023-06-14T09:06:23;34.30;43.90
32811;DHT22;65470;47.324;8.548;2023-06-14T09:08:50;34.40;43.80
32811;DHT22;65470;47.324;8.548;2023-06-14T09:11:17;34.60;42.70
32811;DHT22;65470;47.324;8.548;2023-06-14T09:13:45;34.40;44.10
32811;DHT22;65470;47.324;8.548;2023-06-14T09:16:12;34.20;42.40
32811;DHT22;65470;47.324;8.548;2023-06-14T09:18:39;34.30;43.00
32811;DHT22;65470;47.324;8.548;2023-06-14T09:21:07;34.50;43.60
32811;DHT22;65470;47.324;8.548;2023-06-14T09:23:40;34.70;42.90
32811;DHT22;65470;47.324;8.548;2023-06-14T09:26:18;34.70;43.70
32811;DHT22;65470;47.324;8.548;2023-06-14T09:28:49;35.10;44.70
32811;DHT22;65470;47.324;8.548;2023-06-14T09:31:19;34.80;42.90
32811;DHT22;65470;47.324;8.548;2023-06-14T09:33:46;35.00;42.00
32811;DHT22;65470;47.324;8.548;2023-06-14T09:36:25;35.40;44.70
32811;DHT22;65470;47.324;8.548;2023-06-14T09:41:36;35.80;42.50
32811;DHT22;65470;47.324;8.548;2023-06-14T09:44:04;35.40;42.40
32811;DHT22;65470;47.324;8.548;2023-06-14T09:46:30;35.40;43.80
32811;DHT22;65470;47.324;8.548;2023-06-14T09:48:59;35.50;42.90
32811;DHT22;65470;47.324;8.548;2023-06-14T09:51:27;35.50;41.90
32811;DHT22;65470;47.324;8.548;2023-06-14T09:53:58;35.60;43.30
32811;DHT22;65470;47.324;8.548;2023-06-14T09:56:29;35.20;40.80
32811;DHT22;65470;47.324;8.548;2023-06-14T09:58:58;34.70;43.10
32811;DHT22;65470;47.324;8.548;2023-06-14T10:01:25;35.00;42.50
32811;DHT22;65470;47.324;8.548;2023-06-14T10:03:56;35.40;40.80
32811;DHT22;65470;47.324;8.548;2023-06-14T10:06:24;35.50;40.50
32811;DHT22;65470;47.324;8.548;2023-06-14T10:08:52;35.80;39.00
32811;DHT22;65470;47.324;8.548;2023-06-14T10:11:21;35.30;42.30
32811;DHT22;65470;47.324;8.548;2023-06-14T10:13:47;34.90;43.20
32811;DHT22;65470;47.324;8.548;2023-06-14T10:16:19;35.20;42.00
32811;DHT22;65470;47.324;8.548;2023-06-14T10:24:43;35.50;39.70
32811;DHT22;65470;47.324;8.548;2023-06-14T10:27:09;35.50;40.10
32811;DHT22;65470;47.324;8.548;2023-06-14T10:32:18;35.90;40.50
32811;DHT22;65470;47.324;8.548;2023-06-14T10:34:44;36.10;41.90
32811;DHT22;65470;47.324;8.548;2023-06-14T10:37:14;36.30;41.40
32811;DHT22;65470;47.324;8.548;2023-06-14T10:39:44;36.40;41.20
32811;DHT22;65470;47.324;8.548;2023-06-14T10:42:14;36.40;40.50
32811;DHT22;65470;47.324;8.548;2023-06-14T10:44:50;36.60;39.70
32811;DHT22;65470;47.324;8.548;2023-06-14T10:47:20;36.50;40.00
32811;DHT22;65470;47.324;8.548;2023-06-14T10:49:51;36.40;40.80
32811;DHT22;65470;47.324;8.548;2023-06-14T10:52:24;36.60;41.30
32811;DHT22;65470;47.324;8.548;2023-06-14T10:57:33;37.20;41.50
32811;DHT22;65470;47.324;8.548;2023-06-14T11:00:03;37.50;36.70
32811;DHT22;65470;47.324;8.548;2023-06-14T11:05:27;37.00;39.50
32811;DHT22;65470;47.324;8.548;2023-06-14T11:08:32;36.90;39.70
32811;DHT22;65470;47.324;8.548;2023-06-14T11:11:06;36.50;38.30
32811;DHT22;65470;47.324;8.548;2023-06-14T11:13:32;36.20;37.50
32811;DHT22;65470;47.324;8.548;2023-06-14T11:15:59;36.00;39.10
32811;DHT22;65470;47.324;8.548;2023-06-14T11:18:25;36.10;41.50
32811;DHT22;65470;47.324;8.548;2023-06-14T11:20:52;36.30;40.90
32811;DHT22;65470;47.324;8.548;2023-06-14T11:23:18;36.30;39.40
32811;DHT22;65470;47.324;8.548;2023-06-14T11:25:50;36.20;37.30
32811;DHT22;65470;47.324;8.548;2023-06-14T11:28:16;36.10;39.80
32811;DHT22;65470;47.324;8.548;2023-06-14T11:30:41;35.80;35.90
32811;DHT22;65470;47.324;8.548;2023-06-14T11:33:09;35.50;38.60
32811;DHT22;65470;47.324;8.548;2023-06-14T11:35:36;35.60;38.50
32811;DHT22;65470;47.324;8.548;2023-06-14T11:38:02;35.50;37.30
32811;DHT22;65470;47.324;8.548;2023-06-14T11:40:28;35.70;36.70
32811;DHT22;65470;47.324;8.548;2023-06-14T11:43:01;35.30;37.50
32811;DHT22;65470;47.324;8.548;2023-06-14T11:45:27;35.00;38.90
32811;DHT22;65470;47.324;8.548;2023-06-14T11:47:55;34.90;36.30
32811;DHT22;65470;47.324;8.548;2023-06-14T11:50:25;34.40;39.50
32811;DHT22;65470;47.324;8.548;2023-06-14T11:52:59;34.10;40.60
32811;DHT22;65470;47.324;8.548;2023-06-14T11:55:29;34.00;37.80
32811;DHT22;65470;47.324;8.548;2023-06-14T11:57:55;33.60;39.30
32811;DHT22;65470;47.324;8.548;2023-06-14T12:00:25;33.40;40.80
32811;DHT22;65470;47.324;8.548;2023-06-14T12:02:55;33.40;41.90
32811;DHT22;65470;47.324;8.548;2023-06-14T12:05:24;33.00;42.10
32811;DHT22;65470;47.324;8.548;2023-06-14T12:08:01;32.70;41.70
32811;DHT22;65470;47.324;8.548;2023-06-14T12:10:28;32.60;43.70
32811;DHT22;65470;47.324;8.548;2023-06-14T12:13:00;32.60;44.00
32811;DHT22;65470;47.324;8.548;2023-06-14T12:15:28;32.70;43.80
32811;DHT22;65470;47.324;8.548;2023-06-14T12:17:55;32.70;42.40
32811;DHT22;65470;47.324;8.548;2023-06-14T12:20:20;32.70;44.20
32811;DHT22;65470;47.324;8.548;2023-06-14T12:22:53;32.60;42.70
32811;DHT22;65470;47.324;8.548;2023-06-14T12:25:39;32.60;41.80
32811;DHT22;65470;47.324;8.548;2023-06-14T12:28:09;32.60;43.30
32811;DHT22;65470;47.324;8.548;2023-06-14T12:30:38;32.30;40.50
32811;DHT22;65470;47.324;8.548;2023-06-14T12:33:04;32.10;42.40
32811;DHT22;65470;47.324;8.548;2023-06-14T12:35:30;32.20;41.80
32811;DHT22;65470;47.324;8.548;2023-06-14T12:37:56;32.40;43.60
32811;DHT22;65470;47.324;8.548;2023-06-14T12:40:22;32.20;41.80
32811;DHT22;65470;47.324;8.548;2023-06-14T12:42:48;32.20;42.10
32811;DHT22;65470;47.324;8.548;2023-06-14T12:45:14;32.30;43.50
32811;DHT22;65470;47.324;8.548;2023-06-14T12:47:40;32.20;42.30
32811;DHT22;65470;47.324;8.548;2023-06-14T12:50:06;32.10;42.00
32811;DHT22;65470;47.324;8.548;2023-06-14T12:52:32;32.20;42.10
32811;DHT22;65470;47.324;8.548;2023-06-14T12:55:04;32.10;40.70
32811;DHT22;65470;47.324;8.548;2023-06-14T12:57:31;31.90;40.80
32811;DHT22;65470;47.324;8.548;2023-06-14T12:59:56;31.70;41.00
32811;DHT22;65470;47.324;8.548;2023-06-14T13:02:22;31.70;40.30
32811;DHT22;65470;47.324;8.548;2023-06-14T13:04:50;31.60;40.20
32811;DHT22;65470;47.324;8.548;2023-06-14T13:07:16;31.40;42.90
32811;DHT22;65470;47.324;8.548;2023-06-14T13:09:42;31.40;45.30
32811;DHT22;65470;47.324;8.548;2023-06-14T13:12:12;31.70;42.10
32811;DHT22;65470;47.324;8.548;2023-06-14T13:14:41;31.70;42.10
32811;DHT22;65470;47.324;8.548;2023-06-14T13:17:09;31.90;44.80
32811;DHT22;65470;47.324;8.548;2023-06-14T13:19:35;31.80;47.40
32811;DHT22;65470;47.324;8.548;2023-06-14T13:22:01;31.80;44.60
32811;DHT22;65470;47.324;8.548;2023-06-14T13:24:26;31.80;43.70
32811;DHT22;65470;47.324;8.548;2023-06-14T13:26:53;31.70;44.70
32811;DHT22;65470;47.324;8.548;2023-06-14T13:29:19;31.60;46.80
32811;DHT22;65470;47.324;8.548;2023-06-14T13:31:44;31.70;45.60
32811;DHT22;65470;47.324;8.548;2023-06-14T13:34:10;31.90;46.40
32811;DHT22;65470;47.324;8.548;2023-06-14T13:36:36;32.10;45.50
32811;DHT22;65470;47.324;8.548;2023-06-14T13:39:02;32.10;46.90
32811;DHT22;65470;47.324;8.548;2023-06-14T13:41:28;32.20;44.50
32811;DHT22;65470;47.324;8.548;2023-06-14T13:44:00;32.10;45.20
32811;DHT22;65470;47.324;8.548;2023-06-14T13:46:26;32.10;45.40
32811;DHT22;65470;47.324;8.548;2023-06-14T13:48:52;32.10;43.50
32811;DHT22;65470;47.324;8.548;2023-06-14T13:51:18;32.10;42.30
32811;DHT22;65470;47.324;8.548;2023-06-14T13:53:50;32.00;44.90
32811;DHT22;65470;47.324;8.548;2023-06-14T13:56:17;31.80;43.70
32811;DHT22;65470;47.324;8.548;2023-06-14T13:58:43;31.90;43.20
32811;DHT22;65470;47.324;8.548;2023-06-14T14:01:08;32.00;44.30
32811;DHT22;65470;47.324;8.548;2023-06-14T14:03:35;31.90;43.10
32811;DHT22;65470;47.324;8.548;2023-06-14T14:06:01;32.00;43.10
32811;DHT22;65470;47.324;8.548;2023-06-14T14:08:27;32.00;44.80
32811;DHT22;65470;47.324;8.548;2023-06-14T14:10:53;31.90;44.60
32811;DHT22;65470;47.324;8.548;2023-06-14T14:13:19;32.00;44.80
32811;DHT22;65470;47.324;8.548;2023-06-14T14:15:46;32.10;40.80
32811;DHT22;65470;47.324;8.548;2023-06-14T14:18:12;31.90;44.10
32811;DHT22;65470;47.324;8.548;2023-06-14T14:20:37;32.00;44.40
32811;DHT22;65470;47.324;8.548;2023-06-14T14:23:03;31.90;43.00
32811;DHT22;65470;47.324;8.548;2023-06-14T14:25:28;32.00;44.10
32811;DHT22;65470;47.324;8.548;2023-06-14T14:27:54;31.90;45.00
32811;DHT22;65470;47.324;8.548;2023-06-14T14:30:20;32.00;44.10
32811;DHT22;65470;47.324;8.548;2023-06-14T14:32:49;31.80;45.00
32811;DHT22;65470;47.324;8.548;2023-06-14T14:35:16;31.70;43.70
32811;DHT22;65470;47.324;8.548;2023-06-14T14:37:42;31.50;42.00
32811;DHT22;65470;47.324;8.548;2023-06-14T14:40:08;31.50;42.20
32811;DHT22;65470;47.324;8.548;2023-06-14T14:42:35;31.40;43.60
32811;DHT22;65470;47.324;8.548;2023-06-14T14:45:01;31.30;42.10
32811;DHT22;65470;47.324;8.548;2023-06-14T14:47:27;31.20;43.60
32811;DHT22;65470;47.324;8.548;2023-06-14T14:49:52;31.20;43.30
32811;DHT22;65470;47.324;8.548;2023-06-14T14:52:18;31.30;43.30
32811;DHT22;65470;47.324;8.548;2023-06-14T14:54:43;31.10;45.30
32811;DHT22;65470;47.324;8.548;2023-06-14T14:57:09;31.00;44.70
32811;DHT22;65470;47.324;8.548;2023-06-14T14:59:36;30.80;43.00
32811;DHT22;65470;47.324;8.548;2023-06-14T15:02:01;30.60;45.00
32811;DHT22;65470;47.324;8.548;2023-06-14T15:04:27;30.40;45.60
32811;DHT22;65470;47.324;8.548;2023-06-14T15:06:52;30.40;45.70
32811;DHT22;65470;47.324;8.548;2023-06-14T15:09:18;30.50;45.50
32811;DHT22;65470;47.324;8.548;2023-06-14T15:11:44;30.50;45.90
32811;DHT22;65470;47.324;8.548;2023-06-14T15:14:10;30.40;45.60
32811;DHT22;65470;47.324;8.548;2023-06-14T15:16:36;30.30;45.00
32811;DHT22;65470;47.324;8.548;2023-06-14T15:19:02;30.30;45.90
32811;DHT22;65470;47.324;8.548;2023-06-14T15:21:28;30.10;44.80
32811;DHT22;65470;47.324;8.548;2023-06-14T15:23:53;30.20;45.40
32811;DHT22;65470;47.324;8.548;2023-06-14T15:26:20;30.10;46.60
32811;DHT22;65470;47.324;8.548;2023-06-14T15:28:45;30.00;45.60
32811;DHT22;65470;47.324;8.548;2023-06-14T15:31:11;30.10;45.10
32811;DHT22;65470;47.324;8.548;2023-06-14T15:33:37;30.10;43.90
32811;DHT22;65470;47.324;8.548;2023-06-14T15:36:02;30.20;42.80
32811;DHT22;65470;47.324;8.548;2023-06-14T15:38:29;30.10;42.00
32811;DHT22;65470;47.324;8.548;2023-06-14T15:40:55;30.00;41.30
32811;DHT22;65470;47.324;8.548;2023-06-14T15:43:21;29.80;42.80
32811;DHT22;65470;47.324;8.548;2023-06-14T15:45:48;29.70;44.60
32811;DHT22;65470;47.324;8.548;2023-06-14T15:48:14;29.60;45.40
32811;DHT22;65470;47.324;8.548;2023-06-14T15:50:39;29.50;47.10
32811;DHT22;65470;47.324;8.548;2023-06-14T15:53:05;29.50;46.90
32811;DHT22;65470;47.324;8.548;2023-06-14T15:55:30;29.50;47.90
32811;DHT22;65470;47.324;8.548;2023-06-14T15:57:56;29.50;45.20